sensor_id;sensor_type;location;lat;lon;timestamp;pressure;altitude;pressure_sealevel;temperature;humidity
45872;BME280;32333;55.844;-3.210;2023-01-28T00:01:49;100798.32;;;1.04;100.00
45872;BME280;32333;55.844;-3.210;2023-01-28T00:04:16;100799.34;;;1.47;100.00
45872;BME280;32333;55.844;-3.210;2023-01-28T00:06:44;100798.53;;;1.04;100.00
45872;BME280;32333;55.844;-3.210;2023-01-28T00:09:12;100802.92;;;1.21;100.00
45872;BME280;32333;55.844;-3.210;2023-01-28T00:11:40;100794.30;;;1.14;100.00
45872;BME280;32333;55.844;-3.210;2023-01-28T00:14:35;100799.58;;;1.22;100.00
45872;BME280;32333;55.844;-3.210;2023-01-28T00:17:05;100801.79;;;1.29;100.00
45872;BME280;32333;55.844;-3.210;2023-01-28T00:19:33;100805.53;;;1.26;100.00
45872;BME280;32333;55.844;-3.210;2023-01-28T00:22:00;100798.30;;;1.71;100.00
45872;BME280;32333;55.844;-3.210;2023-01-28T00:24:28;100795.38;;;1.28;100.00
45872;BME280;32333;55.844;-3.210;2023-01-28T00:26:55;100793.40;;;1.07;100.00
45872;BME280;32333;55.844;-3.210;2023-01-28T00:29:24;100787.35;;;1.42;100.00
45872;BME280;32333;55.844;-3.210;2023-01-28T00:31:51;100794.75;;;1.31;100.00
45872;BME280;32333;55.844;-3.210;2023-01-28T00:34:19;100790.48;;;0.89;100.00
45872;BME280;32333;55.844;-3.210;2023-01-28T00:36:46;100789.08;;;1.55;100.00
45872;BME280;32333;55.844;-3.210;2023-01-28T00:39:14;100782.05;;;1.10;100.00
45872;BME280;32333;55.844;-3.210;2023-01-28T00:41:41;100782.81;;;2.13;100.00
45872;BME280;32333;55.844;-3.210;2023-01-28T00:44:36;100782.38;;;1.96;100.00
45872;BME280;32333;55.844;-3.210;2023-01-28T00:47:03;100779.25;;;1.24;100.00
45872;BME280;32333;55.844;-3.210;2023-01-28T00:49:31;100777.51;;;1.29;100.00
45872;BME280;32333;55.844;-3.210;2023-01-28T00:51:59;100779.79;;;1.88;100.00
45872;BME280;32333;55.844;-3.210;2023-01-28T00:54:27;100787.84;;;1.81;100.00
45872;BME280;32333;55.844;-3.210;2023-01-28T00:56:54;100790.06;;;1.71;100.00
45872;BME280;32333;55.844;-3.210;2023-01-28T00:59:22;100798.50;;;0.47;100.00
45872;BME280;32333;55.844;-3.210;2023-01-28T01:01:49;100793.80;;;2.06;100.00
45872;BME280;32333;55.844;-3.210;2023-01-28T01:04:17;100791.59;;;1.36;100.00
45872;BME280;32333;55.844;-3.210;2023-01-28T01:06:44;100798.19;;;1.34;100.00
45872;BME280;32333;55.844;-3.210;2023-01-28T01:09:13;100799.78;;;0.84;100.00
45872;BME280;32333;55.844;-3.210;2023-01-28T01:11:40;100805.04;;;1.99;100.00
45872;BME280;32333;55.844;-3.210;2023-01-28T01:14:36;100806.21;;;2.06;100.00
45872;BME280;32333;55.844;-3.210;2023-01-28T01:17:03;100801.22;;;2.50;100.00
45872;BME280;32333;55.844;-3.210;2023-01-28T01:19:31;100802.82;;;2.16;100.00
45872;BME280;32333;55.844;-3.210;2023-01-28T01:21:59;100798.58;;;2.23;100.00
45872;BME280;32333;55.844;-3.210;2023-01-28T01:24:26;100785.03;;;2.86;100.00
45872;BME280;32333;55.844;-3.210;2023-01-28T01:26:54;100790.06;;;1.99;100.00
45872;BME280;32333;55.844;-3.210;2023-01-28T01:29:22;100787.91;;;1.83;100.00
45872;BME280;32333;55.844;-3.210;2023-01-28T01:31:49;100784.78;;;1.89;100.00
45872;BME280;32333;55.844;-3.210;2023-01-28T01:34:17;100778.25;;;2.05;100.00
45872;BME280;32333;55.844;-3.210;2023-01-28T01:36:44;100781.08;;;2.12;100.00
45872;BME280;32333;55.844;-3.210;2023-01-28T01:39:13;100783.94;;;2.11;100.00
45872;BME280;32333;55.844;-3.210;2023-01-28T01:41:40;100778.85;;;1.69;100.00
45872;BME280;32333;55.844;-3.210;2023-01-28T01:45:12;100775.32;;;1.83;100.00
45872;BME280;32333;55.844;-3.210;2023-01-28T01:47:44;100777.28;;;1.49;100.00
45872;BME280;32333;55.844;-3.210;2023-01-28T01:50:18;100781.14;;;1.93;100.00
45872;BME280;32333;55.844;-3.210;2023-01-28T01:52:50;100790.68;;;2.33;100.00
45872;BME280;32333;55.844;-3.210;2023-01-28T01:55:20;100794.80;;;2.44;100.00
45872;BME280;32333;55.844;-3.210;2023-01-28T01:57:52;100798.20;;;2.31;100.00
45872;BME280;32333;55.844;-3.210;2023-01-28T02:00:21;100803.82;;;2.56;100.00
45872;BME280;32333;55.844;-3.210;2023-01-28T02:02:49;100796.25;;;2.35;100.00
45872;BME280;32333;55.844;-3.210;2023-01-28T02:05:20;100793.04;;;1.84;100.00
45872;BME280;32333;55.844;-3.210;2023-01-28T02:07:50;100793.60;;;1.88;100.00
45872;BME280;32333;55.844;-3.210;2023-01-28T02:10:19;100789.98;;;2.58;100.00
45872;BME280;32333;55.844;-3.210;2023-01-28T02:14:40;100797.03;;;1.93;100.00
45872;BME280;32333;55.844;-3.210;2023-01-28T02:17:08;100790.67;;;2.70;100.00
45872;BME280;32333;55.844;-3.210;2023-01-28T02:19:38;100792.94;;;2.77;100.00
45872;BME280;32333;55.844;-3.210;2023-01-28T02:22:22;100799.19;;;2.51;100.00
45872;BME280;32333;55.844;-3.210;2023-01-28T02:25:13;100795.63;;;1.63;100.00
45872;BME280;32333;55.844;-3.210;2023-01-28T02:27:57;100791.66;;;2.54;100.00
45872;BME280;32333;55.844;-3.210;2023-01-28T02:30:34;100788.67;;;3.28;100.00
45872;BME280;32333;55.844;-3.210;2023-01-28T02:33:07;100781.58;;;3.60;100.00
45872;BME280;32333;55.844;-3.210;2023-01-28T02:35:41;100782.34;;;3.28;100.00
45872;BME280;32333;55.844;-3.210;2023-01-28T02:38:17;100786.96;;;3.04;100.00
45872;BME280;32333;55.844;-3.210;2023-01-28T02:40:51;100784.89;;;3.19;100.00
45872;BME280;32333;55.844;-3.210;2023-01-28T02:44:35;100793.69;;;2.85;100.00
45872;BME280;32333;55.844;-3.210;2023-01-28T02:47:08;100798.17;;;1.89;100.00
45872;BME280;32333;55.844;-3.210;2023-01-28T02:49:39;100799.40;;;3.19;100.00
45872;BME280;32333;55.844;-3.210;2023-01-28T02:52:18;100791.56;;;2.76;100.00
45872;BME280;32333;55.844;-3.210;2023-01-28T02:54:59;100798.81;;;3.15;100.00
45872;BME280;32333;55.844;-3.210;2023-01-28T02:57:36;100809.40;;;2.30;100.00
45872;BME280;32333;55.844;-3.210;2023-01-28T03:00:11;100807.15;;;2.10;100.00
45872;BME280;32333;55.844;-3.210;2023-01-28T03:02:45;100801.47;;;1.96;100.00
45872;BME280;32333;55.844;-3.210;2023-01-28T03:05:20;100800.75;;;2.34;100.00
45872;BME280;32333;55.844;-3.210;2023-01-28T03:07:49;100805.58;;;2.66;100.00
45872;BME280;32333;55.844;-3.210;2023-01-28T03:10:20;100806.68;;;2.97;100.00
45872;BME280;32333;55.844;-3.210;2023-01-28T03:14:36;100802.47;;;3.10;100.00
45872;BME280;32333;55.844;-3.210;2023-01-28T03:17:08;100804.24;;;2.83;100.00
45872;BME280;32333;55.844;-3.210;2023-01-28T03:19:38;100807.59;;;2.94;100.00
45872;BME280;32333;55.844;-3.210;2023-01-28T03:22:06;100808.68;;;3.07;100.00
45872;BME280;32333;55.844;-3.210;2023-01-28T03:24:39;100806.89;;;3.03;100.00
45872;BME280;32333;55.844;-3.210;2023-01-28T03:27:13;100814.95;;;2.79;100.00
45872;BME280;32333;55.844;-3.210;2023-01-28T03:29:44;100810.36;;;2.55;100.00
45872;BME280;32333;55.844;-3.210;2023-01-28T03:32:12;100813.58;;;2.95;100.00
45872;BME280;32333;55.844;-3.210;2023-01-28T03:34:40;100819.61;;;2.83;100.00
45872;BME280;32333;55.844;-3.210;2023-01-28T03:37:08;100822.96;;;2.87;100.00
45872;BME280;32333;55.844;-3.210;2023-01-28T03:39:37;100814.92;;;3.02;100.00
45872;BME280;32333;55.844;-3.210;2023-01-28T03:44:36;100806.57;;;3.54;100.00
45872;BME280;32333;55.844;-3.210;2023-01-28T03:47:03;100811.60;;;2.89;100.00
45872;BME280;32333;55.844;-3.210;2023-01-28T03:49:31;100810.46;;;3.08;100.00
45872;BME280;32333;55.844;-3.210;2023-01-28T03:51:59;100805.63;;;2.89;100.00
45872;BME280;32333;55.844;-3.210;2023-01-28T03:54:27;100812.42;;;2.55;100.00
45872;BME280;32333;55.844;-3.210;2023-01-28T03:56:54;100814.37;;;3.44;100.00
45872;BME280;32333;55.844;-3.210;2023-01-28T03:59:21;100818.85;;;2.69;100.00
45872;BME280;32333;55.844;-3.210;2023-01-28T04:01:49;100818.36;;;2.88;100.00
45872;BME280;32333;55.844;-3.210;2023-01-28T04:04:17;100816.50;;;2.70;100.00
45872;BME280;32333;55.844;-3.210;2023-01-28T04:06:44;100820.16;;;2.32;100.00
45872;BME280;32333;55.844;-3.210;2023-01-28T04:09:12;100807.49;;;2.50;100.00
45872;BME280;32333;55.844;-3.210;2023-01-28T04:11:39;100804.81;;;2.75;100.00
45872;BME280;32333;55.844;-3.210;2023-01-28T04:14:35;100817.85;;;2.24;100.00
45872;BME280;32333;55.844;-3.210;2023-01-28T04:17:03;100829.46;;;2.64;100.00
45872;BME280;32333;55.844;-3.210;2023-01-28T04:19:30;100828.00;;;2.44;100.00
45872;BME280;32333;55.844;-3.210;2023-01-28T04:21:59;100832.20;;;2.44;100.00
45872;BME280;32333;55.844;-3.210;2023-01-28T04:24:26;100832.61;;;2.50;100.00
45872;BME280;32333;55.844;-3.210;2023-01-28T04:26:54;100839.93;;;2.72;100.00
45872;BME280;32333;55.844;-3.210;2023-01-28T04:29:21;100845.43;;;2.93;100.00
45872;BME280;32333;55.844;-3.210;2023-01-28T04:31:49;100849.64;;;3.01;100.00
45872;BME280;32333;55.844;-3.210;2023-01-28T04:34:16;100847.79;;;3.80;100.00
45872;BME280;32333;55.844;-3.210;2023-01-28T04:36:44;100846.12;;;3.31;100.00
45872;BME280;32333;55.844;-3.210;2023-01-28T04:39:13;100852.82;;;2.46;100.00
45872;BME280;32333;55.844;-3.210;2023-01-28T04:41:40;100856.46;;;3.14;100.00
45872;BME280;32333;55.844;-3.210;2023-01-28T04:44:36;100856.64;;;4.01;100.00
45872;BME280;32333;55.844;-3.210;2023-01-28T04:47:03;100851.12;;;2.83;100.00
45872;BME280;32333;55.844;-3.210;2023-01-28T04:49:31;100856.42;;;3.66;100.00
45872;BME280;32333;55.844;-3.210;2023-01-28T04:51:59;100856.10;;;3.29;100.00
45872;BME280;32333;55.844;-3.210;2023-01-28T04:54:27;100858.59;;;3.67;100.00
45872;BME280;32333;55.844;-3.210;2023-01-28T04:56:54;100859.32;;;3.35;100.00
45872;BME280;32333;55.844;-3.210;2023-01-28T04:59:21;100852.63;;;3.26;100.00
45872;BME280;32333;55.844;-3.210;2023-01-28T05:01:49;100852.11;;;3.43;100.00
45872;BME280;32333;55.844;-3.210;2023-01-28T05:04:17;100846.66;;;3.14;100.00
45872;BME280;32333;55.844;-3.210;2023-01-28T05:06:44;100845.72;;;2.49;100.00
45872;BME280;32333;55.844;-3.210;2023-01-28T05:09:12;100837.18;;;3.46;100.00
45872;BME280;32333;55.844;-3.210;2023-01-28T05:11:40;100834.06;;;3.81;100.00
45872;BME280;32333;55.844;-3.210;2023-01-28T05:14:35;100828.11;;;3.47;100.00
45872;BME280;32333;55.844;-3.210;2023-01-28T05:17:02;100821.60;;;3.15;100.00
45872;BME280;32333;55.844;-3.210;2023-01-28T05:19:30;100821.87;;;2.44;100.00
45872;BME280;32333;55.844;-3.210;2023-01-28T05:21:57;100823.02;;;3.35;100.00
45872;BME280;32333;55.844;-3.210;2023-01-28T05:24:25;100827.07;;;3.50;100.00
45872;BME280;32333;55.844;-3.210;2023-01-28T05:26:52;100838.27;;;2.81;100.00
45872;BME280;32333;55.844;-3.210;2023-01-28T05:29:20;100840.29;;;2.61;100.00
45872;BME280;32333;55.844;-3.210;2023-01-28T05:31:48;100841.57;;;3.40;100.00
45872;BME280;32333;55.844;-3.210;2023-01-28T05:34:16;100847.43;;;3.91;100.00
45872;BME280;32333;55.844;-3.210;2023-01-28T05:36:43;100843.91;;;4.36;100.00
45872;BME280;32333;55.844;-3.210;2023-01-28T05:39:11;100834.71;;;4.44;100.00
45872;BME280;32333;55.844;-3.210;2023-01-28T05:41:38;100823.49;;;5.01;100.00
45872;BME280;32333;55.844;-3.210;2023-01-28T05:44:35;100814.60;;;3.27;100.00
45872;BME280;32333;55.844;-3.210;2023-01-28T05:47:03;100817.11;;;3.41;100.00
45872;BME280;32333;55.844;-3.210;2023-01-28T05:49:30;100825.25;;;3.36;100.00
45872;BME280;32333;55.844;-3.210;2023-01-28T05:51:59;100825.14;;;3.32;100.00
45872;BME280;32333;55.844;-3.210;2023-01-28T05:54:27;100821.17;;;3.11;100.00
45872;BME280;32333;55.844;-3.210;2023-01-28T05:56:54;100819.93;;;2.99;100.00
45872;BME280;32333;55.844;-3.210;2023-01-28T05:59:22;100817.24;;;3.47;100.00
45872;BME280;32333;55.844;-3.210;2023-01-28T06:01:49;100813.33;;;2.98;100.00
45872;BME280;32333;55.844;-3.210;2023-01-28T06:04:17;100817.59;;;4.02;100.00
45872;BME280;32333;55.844;-3.210;2023-01-28T06:06:45;100817.65;;;3.60;100.00
45872;BME280;32333;55.844;-3.210;2023-01-28T06:09:13;100817.74;;;2.92;100.00
45872;BME280;32333;55.844;-3.210;2023-01-28T06:11:41;100819.82;;;4.53;100.00
45872;BME280;32333;55.844;-3.210;2023-01-28T06:14:36;100823.12;;;4.36;100.00
45872;BME280;32333;55.844;-3.210;2023-01-28T06:17:03;100827.17;;;4.85;100.00
45872;BME280;32333;55.844;-3.210;2023-01-28T06:19:30;100832.69;;;4.22;100.00
45872;BME280;32333;55.844;-3.210;2023-01-28T06:21:59;100826.12;;;4.42;100.00
45872;BME280;32333;55.844;-3.210;2023-01-28T06:24:26;100825.53;;;4.00;100.00
45872;BME280;32333;55.844;-3.210;2023-01-28T06:26:54;100825.60;;;4.34;100.00
45872;BME280;32333;55.844;-3.210;2023-01-28T06:29:21;100821.99;;;4.53;100.00
45872;BME280;32333;55.844;-3.210;2023-01-28T06:31:49;100833.11;;;5.01;100.00
45872;BME280;32333;55.844;-3.210;2023-01-28T06:34:16;100845.29;;;5.40;100.00
45872;BME280;32333;55.844;-3.210;2023-01-28T06:36:44;100848.50;;;4.92;100.00
45872;BME280;32333;55.844;-3.210;2023-01-28T06:39:12;100846.20;;;6.53;100.00
45872;BME280;32333;55.844;-3.210;2023-01-28T06:41:40;100833.95;;;5.39;100.00
45872;BME280;32333;55.844;-3.210;2023-01-28T06:44:36;100835.57;;;4.64;100.00
45872;BME280;32333;55.844;-3.210;2023-01-28T06:47:04;100839.28;;;5.16;100.00
45872;BME280;32333;55.844;-3.210;2023-01-28T06:49:32;100838.51;;;5.39;100.00
45872;BME280;32333;55.844;-3.210;2023-01-28T06:52:00;100838.16;;;5.30;100.00
45872;BME280;32333;55.844;-3.210;2023-01-28T06:54:27;100841.25;;;6.66;100.00
45872;BME280;32333;55.844;-3.210;2023-01-28T06:56:55;100836.78;;;7.01;100.00
45872;BME280;32333;55.844;-3.210;2023-01-28T06:59:23;100838.31;;;6.65;100.00
45872;BME280;32333;55.844;-3.210;2023-01-28T07:01:51;100842.97;;;5.14;100.00
45872;BME280;32333;55.844;-3.210;2023-01-28T07:04:18;100851.08;;;6.52;100.00
45872;BME280;32333;55.844;-3.210;2023-01-28T07:06:45;100853.35;;;4.76;100.00
45872;BME280;32333;55.844;-3.210;2023-01-28T07:09:13;100857.14;;;6.76;100.00
45872;BME280;32333;55.844;-3.210;2023-01-28T07:11:41;100855.14;;;7.07;100.00
45872;BME280;32333;55.844;-3.210;2023-01-28T07:14:35;100851.22;;;6.87;100.00
45872;BME280;32333;55.844;-3.210;2023-01-28T07:17:02;100853.42;;;6.69;100.00
45872;BME280;32333;55.844;-3.210;2023-01-28T07:19:30;100854.29;;;5.15;100.00
45872;BME280;32333;55.844;-3.210;2023-01-28T07:21:58;100857.64;;;5.83;100.00
45872;BME280;32333;55.844;-3.210;2023-01-28T07:24:26;100856.55;;;5.69;100.00
45872;BME280;32333;55.844;-3.210;2023-01-28T07:26:53;100853.99;;;5.35;100.00
45872;BME280;32333;55.844;-3.210;2023-01-28T07:29:21;100857.51;;;5.37;100.00
45872;BME280;32333;55.844;-3.210;2023-01-28T07:31:48;100850.99;;;5.22;100.00
45872;BME280;32333;55.844;-3.210;2023-01-28T07:34:15;100856.79;;;4.74;100.00
45872;BME280;32333;55.844;-3.210;2023-01-28T07:36:43;100860.14;;;4.78;100.00
45872;BME280;32333;55.844;-3.210;2023-01-28T07:39:11;100857.66;;;4.60;100.00
45872;BME280;32333;55.844;-3.210;2023-01-28T07:41:39;100861.63;;;4.40;100.00
45872;BME280;32333;55.844;-3.210;2023-01-28T07:44:36;100863.04;;;5.57;100.00
45872;BME280;32333;55.844;-3.210;2023-01-28T07:47:04;100860.21;;;4.95;100.00
45872;BME280;32333;55.844;-3.210;2023-01-28T07:49:32;100860.51;;;4.35;100.00
45872;BME280;32333;55.844;-3.210;2023-01-28T07:52:00;100855.92;;;5.22;100.00
45872;BME280;32333;55.844;-3.210;2023-01-28T07:54:28;100858.85;;;5.36;100.00
45872;BME280;32333;55.844;-3.210;2023-01-28T07:56:56;100864.84;;;6.22;100.00
45872;BME280;32333;55.844;-3.210;2023-01-28T07:59:24;100865.57;;;5.18;100.00
45872;BME280;32333;55.844;-3.210;2023-01-28T08:01:52;100868.81;;;4.23;100.00
45872;BME280;32333;55.844;-3.210;2023-01-28T08:04:20;100870.38;;;4.54;100.00
45872;BME280;32333;55.844;-3.210;2023-01-28T08:06:48;100870.34;;;4.84;100.00
45872;BME280;32333;55.844;-3.210;2023-01-28T08:09:16;100871.28;;;4.37;100.00
45872;BME280;32333;55.844;-3.210;2023-01-28T08:11:43;100872.63;;;3.73;100.00
45872;BME280;32333;55.844;-3.210;2023-01-28T08:14:36;100874.40;;;4.75;100.00
45872;BME280;32333;55.844;-3.210;2023-01-28T08:17:03;100873.67;;;5.35;100.00
45872;BME280;32333;55.844;-3.210;2023-01-28T08:19:30;100879.67;;;5.18;100.00
45872;BME280;32333;55.844;-3.210;2023-01-28T08:21:59;100888.65;;;5.33;100.00
45872;BME280;32333;55.844;-3.210;2023-01-28T08:24:26;100897.44;;;4.40;100.00
45872;BME280;32333;55.844;-3.210;2023-01-28T08:26:53;100898.95;;;4.77;100.00
45872;BME280;32333;55.844;-3.210;2023-01-28T08:29:21;100898.31;;;4.10;100.00
45872;BME280;32333;55.844;-3.210;2023-01-28T08:31:49;100902.31;;;4.38;100.00
45872;BME280;32333;55.844;-3.210;2023-01-28T08:34:18;100908.62;;;3.94;100.00
45872;BME280;32333;55.844;-3.210;2023-01-28T08:36:45;100913.24;;;4.24;100.00
45872;BME280;32333;55.844;-3.210;2023-01-28T08:39:14;100917.88;;;4.19;100.00
45872;BME280;32333;55.844;-3.210;2023-01-28T08:41:41;100920.89;;;4.16;100.00
45872;BME280;32333;55.844;-3.210;2023-01-28T08:44:35;100925.28;;;5.67;100.00
45872;BME280;32333;55.844;-3.210;2023-01-28T08:47:03;100933.04;;;4.58;100.00
45872;BME280;32333;55.844;-3.210;2023-01-28T08:49:30;100935.44;;;4.91;100.00
45872;BME280;32333;55.844;-3.210;2023-01-28T08:51:59;100937.70;;;4.55;100.00
45872;BME280;32333;55.844;-3.210;2023-01-28T08:54:26;100937.13;;;5.04;100.00
45872;BME280;32333;55.844;-3.210;2023-01-28T08:56:54;100933.57;;;4.64;100.00
45872;BME280;32333;55.844;-3.210;2023-01-28T08:59:21;100937.10;;;4.89;100.00
45872;BME280;32333;55.844;-3.210;2023-01-28T09:01:49;100942.86;;;5.63;100.00
45872;BME280;32333;55.844;-3.210;2023-01-28T09:04:16;100948.06;;;4.38;100.00
45872;BME280;32333;55.844;-3.210;2023-01-28T09:06:43;100944.51;;;4.32;100.00
45872;BME280;32333;55.844;-3.210;2023-01-28T09:09:12;100940.68;;;3.66;100.00
45872;BME280;32333;55.844;-3.210;2023-01-28T09:11:39;100929.11;;;4.76;100.00
45872;BME280;32333;55.844;-3.210;2023-01-28T09:14:36;100920.38;;;5.60;100.00
45872;BME280;32333;55.844;-3.210;2023-01-28T09:17:04;100914.39;;;4.86;100.00
45872;BME280;32333;55.844;-3.210;2023-01-28T09:19:31;100907.30;;;5.16;100.00
45872;BME280;32333;55.844;-3.210;2023-01-28T09:22:01;100900.32;;;4.20;100.00
45872;BME280;32333;55.844;-3.210;2023-01-28T09:24:29;100892.34;;;4.79;100.00
45872;BME280;32333;55.844;-3.210;2023-01-28T09:26:56;100890.90;;;4.27;100.00
45872;BME280;32333;55.844;-3.210;2023-01-28T09:29:26;100888.88;;;3.92;100.00
45872;BME280;32333;55.844;-3.210;2023-01-28T09:31:53;100887.41;;;3.88;100.00
45872;BME280;32333;55.844;-3.210;2023-01-28T09:34:21;100886.15;;;3.85;100.00
45872;BME280;32333;55.844;-3.210;2023-01-28T09:36:48;100889.25;;;4.19;100.00
45872;BME280;32333;55.844;-3.210;2023-01-28T09:39:16;100889.06;;;3.88;100.00
45872;BME280;32333;55.844;-3.210;2023-01-28T09:41:49;100889.71;;;4.72;100.00
45872;BME280;32333;55.844;-3.210;2023-01-28T09:44:45;100891.37;;;5.47;100.00
45872;BME280;32333;55.844;-3.210;2023-01-28T09:47:18;100895.15;;;4.63;100.00
45872;BME280;32333;55.844;-3.210;2023-01-28T09:49:51;100900.16;;;4.46;100.00
45872;BME280;32333;55.844;-3.210;2023-01-28T09:52:21;100898.99;;;5.04;100.00
45872;BME280;32333;55.844;-3.210;2023-01-28T09:54:52;100896.91;;;5.23;100.00
45872;BME280;32333;55.844;-3.210;2023-01-28T09:57:23;100893.19;;;5.81;100.00
45872;BME280;32333;55.844;-3.210;2023-01-28T09:59:52;100901.53;;;6.08;100.00
45872;BME280;32333;55.844;-3.210;2023-01-28T10:02:39;100898.74;;;5.65;100.00
45872;BME280;32333;55.844;-3.210;2023-01-28T10:05:18;100918.41;;;5.47;100.00
45872;BME280;32333;55.844;-3.210;2023-01-28T10:07:54;100924.26;;;5.48;100.00
45872;BME280;32333;55.844;-3.210;2023-01-28T10:10:27;100923.64;;;4.75;100.00
45872;BME280;32333;55.844;-3.210;2023-01-28T10:14:45;100928.36;;;5.17;100.00
45872;BME280;32333;55.844;-3.210;2023-01-28T10:17:18;100938.61;;;6.38;100.00
45872;BME280;32333;55.844;-3.210;2023-01-28T10:19:50;100934.33;;;6.02;100.00
45872;BME280;32333;55.844;-3.210;2023-01-28T10:22:23;100932.67;;;6.64;100.00
45872;BME280;32333;55.844;-3.210;2023-01-28T10:24:55;100933.28;;;6.16;100.00
45872;BME280;32333;55.844;-3.210;2023-01-28T10:27:26;100926.06;;;6.28;100.00
45872;BME280;32333;55.844;-3.210;2023-01-28T10:29:55;100928.31;;;6.72;100.00
45872;BME280;32333;55.844;-3.210;2023-01-28T10:32:29;100932.04;;;6.45;100.00
45872;BME280;32333;55.844;-3.210;2023-01-28T10:34:57;100929.98;;;6.22;100.00
45872;BME280;32333;55.844;-3.210;2023-01-28T10:37:25;100930.48;;;6.34;100.00
45872;BME280;32333;55.844;-3.210;2023-01-28T10:39:56;100938.62;;;6.55;100.00
45872;BME280;32333;55.844;-3.210;2023-01-28T10:44:37;100944.05;;;6.64;100.00
45872;BME280;32333;55.844;-3.210;2023-01-28T10:47:12;100941.33;;;6.37;100.00
45872;BME280;32333;55.844;-3.210;2023-01-28T10:49:44;100941.67;;;5.94;100.00
45872;BME280;32333;55.844;-3.210;2023-01-28T10:52:15;100941.44;;;6.10;100.00
45872;BME280;32333;55.844;-3.210;2023-01-28T10:54:43;100936.45;;;6.91;100.00
45872;BME280;32333;55.844;-3.210;2023-01-28T10:57:14;100933.60;;;6.22;100.00
45872;BME280;32333;55.844;-3.210;2023-01-28T10:59:42;100931.26;;;7.22;100.00
45872;BME280;32333;55.844;-3.210;2023-01-28T11:02:28;100931.34;;;7.50;100.00
45872;BME280;32333;55.844;-3.210;2023-01-28T11:05:13;100928.97;;;7.09;100.00
45872;BME280;32333;55.844;-3.210;2023-01-28T11:07:42;100921.00;;;7.69;100.00
45872;BME280;32333;55.844;-3.210;2023-01-28T11:10:29;100912.06;;;8.29;100.00
45872;BME280;32333;55.844;-3.210;2023-01-28T11:14:35;100904.68;;;7.25;100.00
45872;BME280;32333;55.844;-3.210;2023-01-28T11:17:02;100901.56;;;6.07;100.00
45872;BME280;32333;55.844;-3.210;2023-01-28T11:19:34;100889.78;;;7.58;100.00
45872;BME280;32333;55.844;-3.210;2023-01-28T11:22:02;100897.26;;;6.58;100.00
45872;BME280;32333;55.844;-3.210;2023-01-28T11:24:32;100898.46;;;6.25;100.00
45872;BME280;32333;55.844;-3.210;2023-01-28T11:27:10;100891.76;;;6.68;100.00
45872;BME280;32333;55.844;-3.210;2023-01-28T11:29:41;100890.68;;;5.52;100.00
45872;BME280;32333;55.844;-3.210;2023-01-28T11:32:16;100885.72;;;6.26;100.00
45872;BME280;32333;55.844;-3.210;2023-01-28T11:34:50;100878.70;;;7.00;100.00
45872;BME280;32333;55.844;-3.210;2023-01-28T11:37:20;100878.09;;;7.27;100.00
45872;BME280;32333;55.844;-3.210;2023-01-28T11:39:48;100876.98;;;6.62;100.00
45872;BME280;32333;55.844;-3.210;2023-01-28T11:44:35;100874.64;;;7.56;100.00
45872;BME280;32333;55.844;-3.210;2023-01-28T11:47:18;100867.38;;;7.65;100.00
45872;BME280;32333;55.844;-3.210;2023-01-28T11:50:03;100863.86;;;7.44;100.00
45872;BME280;32333;55.844;-3.210;2023-01-28T11:52:41;100866.52;;;8.28;100.00
45872;BME280;32333;55.844;-3.210;2023-01-28T11:55:22;100867.01;;;8.19;100.00
45872;BME280;32333;55.844;-3.210;2023-01-28T11:57:58;100866.44;;;7.32;100.00
45872;BME280;32333;55.844;-3.210;2023-01-28T12:00:39;100864.53;;;7.35;100.00
45872;BME280;32333;55.844;-3.210;2023-01-28T12:03:22;100866.24;;;7.76;100.00
45872;BME280;32333;55.844;-3.210;2023-01-28T12:05:57;100863.35;;;7.97;100.00
45872;BME280;32333;55.844;-3.210;2023-01-28T12:08:40;100866.78;;;8.91;100.00
45872;BME280;32333;55.844;-3.210;2023-01-28T12:11:23;100866.52;;;8.30;100.00
45872;BME280;32333;55.844;-3.210;2023-01-28T12:14:47;100857.59;;;7.75;100.00
45872;BME280;32333;55.844;-3.210;2023-01-28T12:17:24;100850.68;;;9.18;96.26
45872;BME280;32333;55.844;-3.210;2023-01-28T12:20:06;100851.92;;;8.77;100.00
45872;BME280;32333;55.844;-3.210;2023-01-28T12:22:50;100855.28;;;8.25;100.00
45872;BME280;32333;55.844;-3.210;2023-01-28T12:25:33;100856.56;;;8.39;99.59
45872;BME280;32333;55.844;-3.210;2023-01-28T12:28:07;100858.67;;;8.61;100.00
45872;BME280;32333;55.844;-3.210;2023-01-28T12:30:55;100855.86;;;8.35;100.00
45872;BME280;32333;55.844;-3.210;2023-01-28T12:33:37;100855.39;;;7.66;100.00
45872;BME280;32333;55.844;-3.210;2023-01-28T12:36:22;100855.45;;;7.20;100.00
45872;BME280;32333;55.844;-3.210;2023-01-28T12:39:01;100863.17;;;5.58;100.00
45872;BME280;32333;55.844;-3.210;2023-01-28T12:41:33;100864.15;;;6.40;100.00
45872;BME280;32333;55.844;-3.210;2023-01-28T12:44:37;100857.05;;;6.90;100.00
45872;BME280;32333;55.844;-3.210;2023-01-28T12:47:09;100863.56;;;6.07;100.00
45872;BME280;32333;55.844;-3.210;2023-01-28T12:49:41;100859.59;;;6.78;100.00
45872;BME280;32333;55.844;-3.210;2023-01-28T12:52:16;100864.46;;;6.29;100.00
45872;BME280;32333;55.844;-3.210;2023-01-28T12:54:53;100859.08;;;5.20;100.00
45872;BME280;32333;55.844;-3.210;2023-01-28T12:57:25;100853.06;;;6.53;100.00
45872;BME280;32333;55.844;-3.210;2023-01-28T12:59:58;100848.78;;;6.00;100.00
45872;BME280;32333;55.844;-3.210;2023-01-28T13:02:36;100847.16;;;6.69;100.00
45872;BME280;32333;55.844;-3.210;2023-01-28T13:05:10;100846.03;;;7.20;100.00
45872;BME280;32333;55.844;-3.210;2023-01-28T13:07:42;100841.62;;;7.41;100.00
45872;BME280;32333;55.844;-3.210;2023-01-28T13:10:18;100838.75;;;5.92;100.00
45872;BME280;32333;55.844;-3.210;2023-01-28T13:14:34;100829.36;;;6.97;100.00
45872;BME280;32333;55.844;-3.210;2023-01-28T13:17:10;100828.11;;;6.74;100.00
45872;BME280;32333;55.844;-3.210;2023-01-28T13:19:39;100831.48;;;7.29;100.00
45872;BME280;32333;55.844;-3.210;2023-01-28T13:22:12;100831.46;;;6.90;100.00